createdAt,value
2022-08-26T00:01:45.161Z,23.29
2022-08-26T00:04:12.706Z,23.35
2022-08-26T00:06:42.278Z,23.34
2022-08-26T00:09:09.909Z,23.25
2022-08-26T00:11:36.990Z,23.14
2022-08-26T00:14:03.810Z,23.30
2022-08-26T00:16:31.914Z,23.30
2022-08-26T00:18:58.842Z,23.12
2022-08-26T00:21:25.485Z,23.16
2022-08-26T00:23:52.147Z,23.19
2022-08-26T00:26:19.298Z,23.12
2022-08-26T00:28:47.557Z,23.02
2022-08-26T00:31:14.495Z,22.96
2022-08-26T00:33:41.443Z,22.93
2022-08-26T00:36:08.426Z,22.99
2022-08-26T00:38:46.698Z,22.92
2022-08-26T00:41:13.393Z,22.91
2022-08-26T00:43:47.251Z,22.88
2022-08-26T00:46:16.918Z,22.91
2022-08-26T00:48:44.162Z,22.84
2022-08-26T00:51:23.459Z,22.89
2022-08-26T00:53:59.161Z,22.96
2022-08-26T00:56:34.814Z,22.84
2022-08-26T00:59:03.379Z,22.83
2022-08-26T01:01:31.416Z,22.76
2022-08-26T01:03:59.149Z,22.80
2022-08-26T01:06:27.479Z,22.77
2022-08-26T01:08:54.656Z,22.75
2022-08-26T01:11:21.510Z,22.70
2022-08-26T01:13:48.794Z,22.70
2022-08-26T01:16:17.159Z,22.63
2022-08-26T01:18:45.446Z,22.61
2022-08-26T01:21:29.549Z,22.78
2022-08-26T01:23:57.906Z,22.66
2022-08-26T01:26:26.512Z,22.63
2022-08-26T01:28:55.664Z,22.58
2022-08-26T01:31:25.014Z,22.60
2022-08-26T01:33:56.203Z,22.56
2022-08-26T01:36:24.594Z,22.52
2022-08-26T01:38:51.466Z,22.49
2022-08-26T01:41:19.933Z,22.47
2022-08-26T01:43:56.014Z,22.46
2022-08-26T01:46:23.147Z,22.45
2022-08-26T01:48:54.469Z,22.45
2022-08-26T01:51:22.975Z,22.48
2022-08-26T01:53:49.772Z,22.48
2022-08-26T01:56:16.736Z,22.43
2022-08-26T01:58:46.930Z,22.40
2022-08-26T02:01:14.622Z,22.40
2022-08-26T02:04:01.534Z,22.40
2022-08-26T02:06:28.399Z,22.38
2022-08-26T02:08:56.606Z,22.42
2022-08-26T02:11:23.335Z,22.50
2022-08-26T02:13:52.382Z,22.41
2022-08-26T02:16:24.615Z,22.35
2022-08-26T02:18:53.299Z,22.35
2022-08-26T02:21:20.585Z,22.41
2022-08-26T02:23:47.866Z,22.36
2022-08-26T02:26:19.965Z,22.34
2022-08-26T02:28:50.501Z,22.32
2022-08-26T02:31:17.361Z,22.37
2022-08-26T02:33:44.142Z,22.31
2022-08-26T02:36:10.874Z,22.33
2022-08-26T02:38:40.242Z,22.37
2022-08-26T02:41:10.391Z,22.38
2022-08-26T02:43:37.078Z,22.31
2022-08-26T02:46:04.017Z,22.32
2022-08-26T02:48:31.213Z,22.33
2022-08-26T02:51:01.963Z,22.29
2022-08-26T02:53:31.907Z,22.28
2022-08-26T02:56:02.388Z,22.29
2022-08-26T02:58:29.878Z,22.35
2022-08-26T03:00:56.618Z,22.38
2022-08-26T03:03:24.238Z,22.32
2022-08-26T03:05:51.370Z,22.37
2022-08-26T03:08:18.554Z,22.31
2022-08-26T03:10:47.618Z,22.25
2022-08-26T03:13:15.306Z,22.30
2022-08-26T03:15:41.956Z,22.18
2022-08-26T03:18:09.540Z,22.15
2022-08-26T03:20:37.002Z,22.14
2022-08-26T03:23:03.696Z,22.13
2022-08-26T03:25:31.043Z,22.14
2022-08-26T03:27:57.764Z,22.11
2022-08-26T03:30:44.959Z,22.07
2022-08-26T03:33:13.331Z,22.08
2022-08-26T03:35:41.190Z,22.04
2022-08-26T03:38:08.574Z,22.01
2022-08-26T03:40:36.757Z,21.99
2022-08-26T03:43:04.490Z,21.97
2022-08-26T03:45:31.362Z,21.98
2022-08-26T03:47:58.344Z,21.95
2022-08-26T03:50:25.144Z,21.92
2022-08-26T03:52:54.082Z,21.92
2022-08-26T03:55:23.977Z,21.95
2022-08-26T03:57:50.916Z,21.91
2022-08-26T04:00:18.533Z,21.92
2022-08-26T04:02:46.375Z,21.97
2022-08-26T04:05:14.546Z,21.96
2022-08-26T04:07:42.825Z,21.89
2022-08-26T04:10:11.182Z,21.85
2022-08-26T04:12:38.593Z,21.85
2022-08-26T04:15:06.560Z,21.84
2022-08-26T04:17:33.371Z,21.84
2022-08-26T04:20:00.137Z,21.78
2022-08-26T04:22:27.147Z,21.80
2022-08-26T04:25:04.260Z,21.78
2022-08-26T04:27:33.905Z,21.79
2022-08-26T04:30:01.055Z,21.77
2022-08-26T04:32:27.844Z,21.74
2022-08-26T04:35:04.607Z,21.74
2022-08-26T04:37:31.468Z,21.70
2022-08-26T04:39:59.388Z,21.80
2022-08-26T04:42:26.443Z,21.72
2022-08-26T04:45:05.876Z,21.71
2022-08-26T04:47:36.700Z,21.69
2022-08-26T04:50:03.508Z,21.68
2022-08-26T04:52:30.205Z,21.63
2022-08-26T04:55:03.007Z,21.64
2022-08-26T04:57:33.623Z,21.64
2022-08-26T05:00:00.821Z,21.65
2022-08-26T05:02:28.230Z,21.72
2022-08-26T05:05:03.396Z,21.68
2022-08-26T05:07:31.396Z,21.68
2022-08-26T05:09:58.526Z,21.65
2022-08-26T05:12:25.512Z,21.67
2022-08-26T05:15:03.068Z,21.63
2022-08-26T05:17:29.858Z,21.65
2022-08-26T05:19:56.703Z,21.61
2022-08-26T05:22:23.348Z,21.57
2022-08-26T05:24:52.955Z,21.55
2022-08-26T05:27:20.846Z,21.53
2022-08-26T05:29:48.403Z,21.53
2022-08-26T05:32:21.801Z,21.52
2022-08-26T05:34:48.472Z,21.50
2022-08-26T05:37:19.455Z,21.52
2022-08-26T05:39:51.395Z,21.52
2022-08-26T05:42:19.988Z,21.52
2022-08-26T05:44:53.695Z,21.48
2022-08-26T05:47:22.178Z,21.48
2022-08-26T05:49:51.792Z,21.47
2022-08-26T05:52:19.176Z,21.48
2022-08-26T05:54:45.831Z,21.47
2022-08-26T05:57:14.535Z,21.47
2022-08-26T05:59:41.199Z,21.45
2022-08-26T06:02:08.617Z,21.43
2022-08-26T06:04:35.648Z,21.43
2022-08-26T06:07:03.163Z,21.44
2022-08-26T06:09:32.077Z,21.42
2022-08-26T06:11:59.336Z,21.41
2022-08-26T06:14:26.327Z,21.41
2022-08-26T06:16:53.027Z,21.42
2022-08-26T06:19:20.255Z,21.42
2022-08-26T06:21:51.384Z,21.42
2022-08-26T06:24:39.573Z,21.44
2022-08-26T06:27:09.884Z,21.41
2022-08-26T06:29:38.236Z,21.40
2022-08-26T06:32:05.421Z,21.41
2022-08-26T06:34:32.874Z,21.40
2022-08-26T06:37:01.391Z,21.43
2022-08-26T06:39:30.583Z,21.43
2022-08-26T06:41:57.921Z,21.45
2022-08-26T06:44:24.630Z,21.43
2022-08-26T06:46:51.490Z,21.44
2022-08-26T06:49:26.676Z,21.51
2022-08-26T06:51:54.602Z,21.43
2022-08-26T06:54:21.540Z,21.47
2022-08-26T06:56:48.276Z,21.47
2022-08-26T06:59:16.438Z,21.48
2022-08-26T07:01:45.130Z,21.55
2022-08-26T07:04:15.689Z,21.61
2022-08-26T07:06:49.129Z,21.66
2022-08-26T07:09:16.260Z,21.68
2022-08-26T07:11:44.688Z,21.73
2022-08-26T07:14:12.359Z,21.76
2022-08-26T07:16:39.333Z,21.78
2022-08-26T07:19:10.847Z,21.80
2022-08-26T07:21:38.188Z,21.85
2022-08-26T07:24:04.892Z,21.87
2022-08-26T07:26:31.929Z,21.89
2022-08-26T07:29:00.091Z,21.91
2022-08-26T07:31:28.059Z,21.92
2022-08-26T07:33:56.964Z,21.93
2022-08-26T07:36:24.529Z,21.99
2022-08-26T07:38:51.991Z,21.98
2022-08-26T07:41:20.235Z,22.00
2022-08-26T07:43:46.970Z,22.01
2022-08-26T07:46:18.681Z,22.03
2022-08-26T07:48:54.107Z,22.03
2022-08-26T07:51:21.770Z,22.05
2022-08-26T07:53:52.408Z,22.06
2022-08-26T07:56:19.729Z,22.08
2022-08-26T07:58:51.493Z,22.08
2022-08-26T08:01:23.991Z,22.11
2022-08-26T08:03:51.905Z,22.12
2022-08-26T08:06:19.685Z,22.16
2022-08-26T08:08:46.546Z,22.16
2022-08-26T08:11:14.342Z,22.15
2022-08-26T08:13:41.535Z,22.15
2022-08-26T08:16:12.776Z,22.18
2022-08-26T08:18:40.480Z,22.16
2022-08-26T08:21:23.963Z,22.17
2022-08-26T08:23:52.056Z,22.17
2022-08-26T08:26:18.854Z,22.19
2022-08-26T08:28:47.911Z,22.19
2022-08-26T08:31:45.013Z,22.18
2022-08-26T08:34:08.677Z,22.17
2022-08-26T08:36:36.219Z,22.16
2022-08-26T08:39:03.127Z,22.16
2022-08-26T08:41:36.475Z,22.20
2022-08-26T08:44:04.516Z,22.22
2022-08-26T08:46:31.605Z,22.22
2022-08-26T08:49:00.165Z,22.22
2022-08-26T08:51:26.829Z,22.24
2022-08-26T08:53:55.021Z,22.25
2022-08-26T08:56:24.792Z,22.28
2022-08-26T08:59:00.328Z,22.30
2022-08-26T09:01:35.281Z,22.30
2022-08-26T09:04:08.090Z,22.30
2022-08-26T09:06:35.446Z,22.31
2022-08-26T09:09:03.045Z,22.33
2022-08-26T09:11:30.725Z,22.33
2022-08-26T09:13:57.884Z,22.32
2022-08-26T09:16:27.826Z,22.34
2022-08-26T09:18:57.467Z,22.35
2022-08-26T09:21:25.409Z,22.39
2022-08-26T09:23:53.766Z,22.39
2022-08-26T09:26:30.569Z,22.39
2022-08-26T09:28:59.382Z,22.41
2022-08-26T09:31:29.595Z,22.47
2022-08-26T09:34:06.399Z,22.46
2022-08-26T09:36:41.102Z,22.49
2022-08-26T09:39:27.077Z,22.48
2022-08-26T09:42:07.957Z,22.49
2022-08-26T09:45:03.244Z,22.52
2022-08-26T09:47:37.254Z,22.54
2022-08-26T09:50:10.047Z,22.58
2022-08-26T09:52:40.323Z,22.70
2022-08-26T09:55:21.172Z,22.62
2022-08-26T09:57:51.619Z,22.62
2022-08-26T10:00:39.002Z,22.66
2022-08-26T10:03:09.070Z,22.61
2022-08-26T10:05:46.586Z,22.62
2022-08-26T10:08:20.109Z,22.65
2022-08-26T10:10:53.149Z,22.69
2022-08-26T10:13:33.733Z,22.72
2022-08-26T10:16:06.309Z,22.80
2022-08-26T10:18:40.482Z,22.79
2022-08-26T10:21:21.041Z,22.81
2022-08-26T10:23:50.785Z,22.82
2022-08-26T10:26:32.782Z,22.84
2022-08-26T10:29:07.289Z,22.83
2022-08-26T10:31:40.557Z,22.82
2022-08-26T10:34:08.797Z,22.88
2022-08-26T10:37:13.874Z,22.90
2022-08-26T10:39:58.556Z,22.95
2022-08-26T10:42:37.569Z,22.99
2022-08-26T10:45:15.653Z,23.01
2022-08-26T10:47:49.281Z,23.04
2022-08-26T10:50:15.948Z,23.08
2022-08-26T10:53:04.382Z,23.11
2022-08-26T10:55:57.462Z,23.13
2022-08-26T10:58:38.027Z,23.16
2022-08-26T11:01:36.519Z,23.19
2022-08-26T11:04:15.003Z,23.22
2022-08-26T11:06:41.975Z,23.25
2022-08-26T11:09:09.076Z,23.26
2022-08-26T11:11:41.557Z,23.28
2022-08-26T11:14:10.975Z,23.31
2022-08-26T11:16:44.714Z,23.32
2022-08-26T11:19:45.578Z,23.36
2022-08-26T11:22:29.140Z,23.38
2022-08-26T11:25:06.957Z,23.35
2022-08-26T11:27:51.668Z,23.35
2022-08-26T11:30:19.777Z,23.31
2022-08-26T11:32:54.551Z,23.35
2022-08-26T11:35:21.210Z,23.33
2022-08-26T11:37:48.137Z,23.34
2022-08-26T11:40:20.878Z,23.34
2022-08-26T11:42:57.336Z,23.37
2022-08-26T11:45:37.881Z,23.38
2022-08-26T11:48:21.236Z,23.41
2022-08-26T11:51:01.899Z,23.43
2022-08-26T11:53:30.648Z,23.44
2022-08-26T11:56:02.013Z,23.46
2022-08-26T11:58:29.193Z,23.45
2022-08-26T12:01:03.618Z,23.48
2022-08-26T12:03:41.888Z,23.50
2022-08-26T12:06:15.918Z,23.52
2022-08-26T12:08:44.357Z,23.53
2022-08-26T12:11:13.738Z,23.54
2022-08-26T12:13:41.090Z,23.54
2022-08-26T12:16:23.142Z,23.58
2022-08-26T12:18:50.460Z,23.60
2022-08-26T12:21:25.735Z,23.62
2022-08-26T12:23:54.850Z,23.63
2022-08-26T12:26:25.597Z,23.65
2022-08-26T12:28:54.320Z,23.64
2022-08-26T12:31:40.703Z,23.63
2022-08-26T12:34:11.689Z,23.64
2022-08-26T12:36:54.090Z,23.66
2022-08-26T12:39:29.939Z,23.65
2022-08-26T12:41:57.807Z,23.66
2022-08-26T12:44:35.108Z,23.64
2022-08-26T12:47:22.860Z,23.65
2022-08-26T12:50:06.042Z,23.66
2022-08-26T12:52:34.492Z,23.68
2022-08-26T12:55:18.212Z,23.67
2022-08-26T12:57:45.069Z,23.66
2022-08-26T13:00:28.349Z,23.69
2022-08-26T13:02:55.308Z,23.67
2022-08-26T13:05:23.346Z,23.70
2022-08-26T13:08:08.727Z,23.70
2022-08-26T13:10:36.600Z,23.70
2022-08-26T13:13:03.252Z,23.71
2022-08-26T13:15:29.953Z,23.71
2022-08-26T13:17:58.607Z,23.74
2022-08-26T13:20:25.276Z,23.73
2022-08-26T13:22:58.682Z,23.73
2022-08-26T13:25:25.940Z,23.74
2022-08-26T13:27:52.600Z,23.77
2022-08-26T13:30:20.015Z,23.76
2022-08-26T13:32:46.676Z,23.76
2022-08-26T13:35:13.375Z,23.77
2022-08-26T13:37:40.044Z,23.79
2022-08-26T13:40:09.189Z,23.76
2022-08-26T13:42:35.888Z,23.77
2022-08-26T13:45:04.165Z,23.79
2022-08-26T13:47:31.064Z,23.77
2022-08-26T13:49:57.745Z,23.80
2022-08-26T13:52:27.234Z,23.80
2022-08-26T13:55:05.019Z,23.79
2022-08-26T13:57:31.772Z,23.80
2022-08-26T13:59:59.591Z,23.83
2022-08-26T14:02:26.846Z,23.81
2022-08-26T14:05:04.261Z,23.82
2022-08-26T14:07:30.889Z,23.83
2022-08-26T14:09:58.011Z,23.85
2022-08-26T14:12:25.346Z,23.87
2022-08-26T14:15:03.924Z,23.86
2022-08-26T14:17:32.188Z,23.85
2022-08-26T14:19:58.939Z,23.84
2022-08-26T14:22:25.591Z,23.86
2022-08-26T14:25:03.522Z,23.84
2022-08-26T14:27:32.656Z,23.88
2022-08-26T14:29:59.682Z,23.83
2022-08-26T14:32:27.465Z,23.86
2022-08-26T14:35:03.391Z,23.86
2022-08-26T14:37:30.058Z,23.86
2022-08-26T14:39:56.947Z,23.88
2022-08-26T14:42:31.631Z,23.89
2022-08-26T14:45:06.700Z,23.88
2022-08-26T14:47:33.403Z,23.88
2022-08-26T14:50:00.615Z,23.89
2022-08-26T14:52:27.854Z,23.87
2022-08-26T14:55:04.013Z,23.87
2022-08-26T14:57:30.644Z,23.88
2022-08-26T14:59:57.893Z,23.87
2022-08-26T15:02:33.581Z,23.86
2022-08-26T15:05:05.185Z,23.85
2022-08-26T15:07:31.867Z,23.87
2022-08-26T15:09:58.527Z,23.88
2022-08-26T15:12:25.138Z,23.88
2022-08-26T15:15:04.071Z,23.87
2022-08-26T15:17:31.357Z,23.86
2022-08-26T15:19:58.090Z,23.89
2022-08-26T15:22:24.821Z,23.88
2022-08-26T15:25:03.578Z,23.86
2022-08-26T15:27:30.329Z,23.90
2022-08-26T15:29:56.966Z,23.90
2022-08-26T15:32:23.673Z,23.90
2022-08-26T15:35:04.462Z,23.91
2022-08-26T15:37:34.973Z,23.88
2022-08-26T15:40:01.708Z,23.91
2022-08-26T15:42:28.355Z,23.93
2022-08-26T15:45:03.767Z,23.91
2022-08-26T15:47:31.213Z,23.94
2022-08-26T15:50:02.091Z,23.94
2022-08-26T15:52:28.790Z,23.94
2022-08-26T15:57:30.843Z,23.97
2022-08-26T15:59:57.430Z,23.97
2022-08-26T16:02:24.117Z,23.94
2022-08-26T16:05:04.150Z,23.94
2022-08-26T16:07:31.677Z,23.94
2022-08-26T16:09:58.347Z,23.92
2022-08-26T16:12:24.940Z,23.92
2022-08-26T16:15:02.107Z,23.93
2022-08-26T16:17:28.744Z,23.91
2022-08-26T16:19:56.386Z,23.91
2022-08-26T16:22:22.980Z,23.88
2022-08-26T16:24:57.153Z,23.89
2022-08-26T16:27:23.937Z,23.89
2022-08-26T16:29:50.554Z,23.88
2022-08-26T16:32:17.221Z,23.88
2022-08-26T16:34:47.110Z,23.85
2022-08-26T16:37:23.621Z,23.83
2022-08-26T16:39:50.305Z,23.85
2022-08-26T16:42:16.942Z,23.84
2022-08-26T16:44:46.411Z,23.85
2022-08-26T16:47:13.541Z,23.85
2022-08-26T16:49:40.742Z,23.83
2022-08-26T16:52:08.038Z,23.84
2022-08-26T16:54:34.948Z,23.83
2022-08-26T16:57:02.009Z,23.83
2022-08-26T16:59:28.631Z,23.83
2022-08-26T17:01:55.345Z,23.85
2022-08-26T17:04:22.147Z,23.85
2022-08-26T17:06:48.942Z,23.83
2022-08-26T17:09:15.707Z,23.84
2022-08-26T17:11:42.400Z,23.81
2022-08-26T17:14:09.207Z,23.82
2022-08-26T17:16:35.974Z,23.83
2022-08-26T17:19:05.037Z,23.82
2022-08-26T17:21:32.608Z,23.81
2022-08-26T17:23:59.513Z,23.84
2022-08-26T17:26:26.758Z,23.85
2022-08-26T17:28:53.934Z,23.82
2022-08-26T17:31:20.990Z,23.82
2022-08-26T17:33:53.730Z,23.81
2022-08-26T17:36:21.410Z,23.81
2022-08-26T17:38:49.177Z,23.80
2022-08-26T17:41:19.114Z,23.81
2022-08-26T17:43:45.773Z,23.78
2022-08-26T17:46:13.054Z,23.79
2022-08-26T17:48:40.376Z,23.76
2022-08-26T17:51:14.544Z,23.76
2022-08-26T17:53:41.625Z,23.76
2022-08-26T17:56:11.762Z,23.76
2022-08-26T17:58:40.200Z,23.74
2022-08-26T18:01:07.262Z,23.75
2022-08-26T18:03:35.402Z,23.75
2022-08-26T18:06:02.309Z,23.75
2022-08-26T18:08:32.238Z,23.76
2022-08-26T18:10:59.444Z,23.72
2022-08-26T18:13:26.310Z,23.71
2022-08-26T18:15:53.229Z,23.72
2022-08-26T18:18:20.109Z,23.72
2022-08-26T18:20:47.057Z,23.72
2022-08-26T18:23:19.535Z,23.71
2022-08-26T18:25:47.322Z,23.70
2022-08-26T18:28:14.157Z,23.69
2022-08-26T18:30:44.386Z,23.70
2022-08-26T18:33:11.992Z,23.68
2022-08-26T18:35:43.057Z,23.67
2022-08-26T18:38:11.803Z,23.68
2022-08-26T18:40:40.256Z,23.68
2022-08-26T18:43:07.073Z,23.69
2022-08-26T18:45:34.024Z,23.69
2022-08-26T18:48:02.310Z,23.67
2022-08-26T18:50:29.484Z,23.68
2022-08-26T18:52:56.231Z,23.68
2022-08-26T18:55:23.237Z,23.68
2022-08-26T18:57:50.950Z,23.67
2022-08-26T19:00:17.965Z,23.68
2022-08-26T19:02:50.515Z,23.68
2022-08-26T19:05:18.665Z,23.68
2022-08-26T19:07:46.567Z,23.67
2022-08-26T19:10:14.929Z,23.67
2022-08-26T19:12:42.831Z,23.67
2022-08-26T19:15:11.230Z,23.67
2022-08-26T19:17:38.080Z,23.68
2022-08-26T19:20:05.632Z,23.67
2022-08-26T19:22:32.498Z,23.68
2022-08-26T19:25:05.104Z,23.68
2022-08-26T19:27:32.177Z,23.68
2022-08-26T19:29:59.211Z,23.67
2022-08-26T19:32:25.949Z,23.67
2022-08-26T19:35:01.287Z,23.67
2022-08-26T19:37:28.114Z,23.66
2022-08-26T19:39:56.100Z,23.67
2022-08-26T19:42:23.082Z,23.66
2022-08-26T19:45:25.245Z,23.68
2022-08-26T19:47:53.775Z,23.66
2022-08-26T19:50:20.667Z,23.69
2022-08-26T19:52:47.871Z,23.69
2022-08-26T19:55:17.295Z,23.69
2022-08-26T19:57:44.508Z,23.67
2022-08-26T20:00:12.859Z,23.67
2022-08-26T20:02:39.950Z,23.66
2022-08-26T20:05:09.124Z,23.66
2022-08-26T20:07:36.362Z,23.66
2022-08-26T20:10:04.165Z,23.66
2022-08-26T20:12:33.571Z,23.67
2022-08-26T20:15:03.980Z,23.69
2022-08-26T20:17:31.550Z,23.68
2022-08-26T20:20:31.609Z,23.72
2022-08-26T20:23:00.684Z,23.68
2022-08-26T20:25:27.317Z,23.67
2022-08-26T20:27:53.919Z,23.68
2022-08-26T20:30:20.670Z,23.66
2022-08-26T20:32:47.365Z,23.70
2022-08-26T20:35:14.136Z,23.70
2022-08-26T20:37:41.411Z,23.69
2022-08-26T20:40:09.552Z,23.68
2022-08-26T20:42:36.583Z,23.67
2022-08-26T20:45:03.482Z,23.67
2022-08-26T20:47:35.183Z,23.67
2022-08-26T20:50:02.816Z,23.65
2022-08-26T20:52:29.833Z,23.66
2022-08-26T20:55:04.482Z,23.67
2022-08-26T20:57:31.397Z,23.67
2022-08-26T20:59:58.171Z,23.67
2022-08-26T21:02:25.088Z,23.69
2022-08-26T21:05:01.495Z,23.66
2022-08-26T21:07:28.853Z,23.65
2022-08-26T21:09:56.499Z,23.65
2022-08-26T21:12:23.353Z,23.64
2022-08-26T21:14:57.305Z,23.63
2022-08-26T21:17:24.120Z,23.64
2022-08-26T21:19:50.892Z,23.65
2022-08-26T21:22:17.830Z,23.64
2022-08-26T21:24:44.794Z,23.64
2022-08-26T21:27:11.544Z,23.63
2022-08-26T21:29:38.310Z,23.64
2022-08-26T21:32:05.759Z,23.64
2022-08-26T21:34:32.417Z,23.66
2022-08-26T21:36:59.220Z,23.65
2022-08-26T21:39:25.976Z,23.64
2022-08-26T21:41:52.606Z,23.67
2022-08-26T21:44:19.334Z,23.66
2022-08-26T21:46:46.825Z,23.64
2022-08-26T21:49:15.880Z,23.63
2022-08-26T21:51:48.033Z,23.64
2022-08-26T21:54:15.138Z,23.64
2022-08-26T21:56:44.738Z,23.62
2022-08-26T21:59:12.140Z,23.63
2022-08-26T22:01:38.942Z,23.63
2022-08-26T22:04:06.539Z,23.63
2022-08-26T22:06:34.145Z,23.67
2022-08-26T22:09:00.786Z,23.66
2022-08-26T22:11:28.312Z,23.64
2022-08-26T22:13:57.023Z,23.64
2022-08-26T22:16:24.482Z,23.64
2022-08-26T22:18:51.293Z,23.64
2022-08-26T22:21:19.561Z,23.62
2022-08-26T22:23:46.673Z,23.64
2022-08-26T22:26:15.333Z,23.63
2022-08-26T22:28:51.907Z,23.63
2022-08-26T22:31:28.053Z,23.62
2022-08-26T22:34:05.943Z,23.64
2022-08-26T22:36:32.618Z,23.63
2022-08-26T22:38:59.351Z,23.65
2022-08-26T22:41:26.406Z,23.65
2022-08-26T22:43:53.131Z,23.62
2022-08-26T22:46:21.395Z,23.63
2022-08-26T22:48:48.132Z,23.65
2022-08-26T22:51:20.948Z,23.63
2022-08-26T22:53:47.808Z,23.64
2022-08-26T22:56:14.990Z,23.64
2022-08-26T22:58:42.038Z,23.63
2022-08-26T23:01:08.997Z,23.62
2022-08-26T23:03:35.899Z,23.61
2022-08-26T23:06:05.218Z,23.63
2022-08-26T23:08:32.017Z,23.69
2022-08-26T23:10:58.728Z,23.63
2022-08-26T23:13:25.427Z,23.63
2022-08-26T23:15:59.483Z,23.61
2022-08-26T23:18:26.080Z,23.62
2022-08-26T23:20:52.707Z,23.62
2022-08-26T23:23:19.332Z,23.65
2022-08-26T23:25:50.573Z,23.64
2022-08-26T23:28:17.724Z,23.65
2022-08-26T23:30:44.348Z,23.63
2022-08-26T23:33:10.976Z,23.62
2022-08-26T23:35:37.663Z,23.60
2022-08-26T23:38:07.721Z,23.61
2022-08-26T23:40:37.072Z,23.60
2022-08-26T23:43:05.186Z,23.67
2022-08-26T23:45:32.173Z,23.60
2022-08-26T23:47:59.471Z,23.60
2022-08-26T23:50:48.307Z,23.58
2022-08-26T23:53:19.800Z,23.63
2022-08-26T23:55:48.537Z,23.61
2022-08-26T23:58:16.055Z,23.59
